sensor_id;sensor_type;location;lat;lon;timestamp;P1;durP1;ratioP1;P2;durP2;ratioP2
16403;SDS011;8311;50.158;8.642;2024-02-23T00:01:44;2.80;;;1.33;;
16403;SDS011;8311;50.158;8.642;2024-02-23T00:04:37;8.27;;;1.40;;
16403;SDS011;8311;50.158;8.642;2024-02-23T00:07:30;4.18;;;1.40;;
16403;SDS011;8311;50.158;8.642;2024-02-23T00:10:23;5.32;;;1.35;;
16403;SDS011;8311;50.158;8.642;2024-02-23T00:13:18;5.03;;;1.63;;
16403;SDS011;8311;50.158;8.642;2024-02-23T00:16:11;4.88;;;1.65;;
16403;SDS011;8311;50.158;8.642;2024-02-23T00:19:05;3.72;;;1.35;;
16403;SDS011;8311;50.158;8.642;2024-02-23T00:21:59;3.85;;;1.35;;
16403;SDS011;8311;50.158;8.642;2024-02-23T00:24:54;8.07;;;1.58;;
16403;SDS011;8311;50.158;8.642;2024-02-23T00:27:47;6.50;;;1.58;;
16403;SDS011;8311;50.158;8.642;2024-02-23T00:30:42;4.25;;;1.10;;
16403;SDS011;8311;50.158;8.642;2024-02-23T00:33:35;3.17;;;1.20;;
16403;SDS011;8311;50.158;8.642;2024-02-23T00:36:29;5.82;;;1.38;;
16403;SDS011;8311;50.158;8.642;2024-02-23T00:39:22;3.70;;;1.58;;
16403;SDS011;8311;50.158;8.642;2024-02-23T00:42:15;3.83;;;1.40;;
16403;SDS011;8311;50.158;8.642;2024-02-23T00:45:08;2.53;;;1.45;;
16403;SDS011;8311;50.158;8.642;2024-02-23T00:48:04;6.88;;;1.80;;
16403;SDS011;8311;50.158;8.642;2024-02-23T00:50:58;3.72;;;1.17;;
16403;SDS011;8311;50.158;8.642;2024-02-23T00:53:51;3.90;;;1.40;;
16403;SDS011;8311;50.158;8.642;2024-02-23T00:56:45;2.05;;;1.23;;
16403;SDS011;8311;50.158;8.642;2024-02-23T00:59:44;4.38;;;1.67;;
16403;SDS011;8311;50.158;8.642;2024-02-23T01:02:38;3.45;;;1.30;;
16403;SDS011;8311;50.158;8.642;2024-02-23T01:05:33;3.22;;;1.00;;
16403;SDS011;8311;50.158;8.642;2024-02-23T01:08:26;3.92;;;1.27;;
16403;SDS011;8311;50.158;8.642;2024-02-23T01:11:19;4.50;;;1.20;;
16403;SDS011;8311;50.158;8.642;2024-02-23T01:14:12;3.08;;;1.23;;
16403;SDS011;8311;50.158;8.642;2024-02-23T01:17:06;4.38;;;1.35;;
16403;SDS011;8311;50.158;8.642;2024-02-23T01:19:59;4.55;;;1.15;;
16403;SDS011;8311;50.158;8.642;2024-02-23T01:22:55;3.90;;;1.13;;
16403;SDS011;8311;50.158;8.642;2024-02-23T01:25:48;2.63;;;1.17;;
16403;SDS011;8311;50.158;8.642;2024-02-23T01:28:41;7.97;;;1.30;;
16403;SDS011;8311;50.158;8.642;2024-02-23T01:31:34;3.40;;;1.08;;
16403;SDS011;8311;50.158;8.642;2024-02-23T01:34:28;3.88;;;1.23;;
16403;SDS011;8311;50.158;8.642;2024-02-23T01:37:21;6.28;;;1.40;;
16403;SDS011;8311;50.158;8.642;2024-02-23T01:40:18;5.32;;;1.50;;
16403;SDS011;8311;50.158;8.642;2024-02-23T01:43:11;4.15;;;1.40;;
16403;SDS011;8311;50.158;8.642;2024-02-23T01:46:05;5.30;;;1.23;;
16403;SDS011;8311;50.158;8.642;2024-02-23T01:48:58;4.20;;;1.42;;
16403;SDS011;8311;50.158;8.642;2024-02-23T01:51:52;2.47;;;1.02;;
16403;SDS011;8311;50.158;8.642;2024-02-23T01:54:45;3.35;;;1.05;;
16403;SDS011;8311;50.158;8.642;2024-02-23T01:57:39;5.10;;;1.20;;
16403;SDS011;8311;50.158;8.642;2024-02-23T02:00:40;3.42;;;1.30;;
16403;SDS011;8311;50.158;8.642;2024-02-23T02:03:34;4.35;;;1.50;;
16403;SDS011;8311;50.158;8.642;2024-02-23T02:06:28;7.95;;;1.55;;
16403;SDS011;8311;50.158;8.642;2024-02-23T02:09:23;4.93;;;1.65;;
16403;SDS011;8311;50.158;8.642;2024-02-23T02:12:25;3.13;;;1.38;;
16403;SDS011;8311;50.158;8.642;2024-02-23T02:15:21;5.07;;;1.50;;
16403;SDS011;8311;50.158;8.642;2024-02-23T02:18:14;3.80;;;1.15;;
16403;SDS011;8311;50.158;8.642;2024-02-23T02:21:10;3.15;;;1.10;;
16403;SDS011;8311;50.158;8.642;2024-02-23T02:24:04;3.40;;;1.20;;
16403;SDS011;8311;50.158;8.642;2024-02-23T02:27:00;5.53;;;1.17;;
16403;SDS011;8311;50.158;8.642;2024-02-23T02:29:53;3.38;;;1.15;;
16403;SDS011;8311;50.158;8.642;2024-02-23T02:32:48;3.50;;;1.23;;
16403;SDS011;8311;50.158;8.642;2024-02-23T02:35:41;5.40;;;1.40;;
16403;SDS011;8311;50.158;8.642;2024-02-23T02:38:34;4.28;;;1.30;;
16403;SDS011;8311;50.158;8.642;2024-02-23T02:41:28;3.80;;;1.20;;
16403;SDS011;8311;50.158;8.642;2024-02-23T02:44:22;3.72;;;1.10;;
16403;SDS011;8311;50.158;8.642;2024-02-23T02:47:16;5.20;;;1.35;;
16403;SDS011;8311;50.158;8.642;2024-02-23T02:50:13;3.67;;;1.15;;
16403;SDS011;8311;50.158;8.642;2024-02-23T02:53:06;3.42;;;1.10;;
16403;SDS011;8311;50.158;8.642;2024-02-23T02:55:59;5.35;;;1.42;;
16403;SDS011;8311;50.158;8.642;2024-02-23T02:58:52;2.72;;;1.20;;
16403;SDS011;8311;50.158;8.642;2024-02-23T03:01:45;2.17;;;0.90;;
16403;SDS011;8311;50.158;8.642;2024-02-23T03:04:45;6.10;;;1.83;;
16403;SDS011;8311;50.158;8.642;2024-02-23T03:07:40;2.85;;;1.45;;
16403;SDS011;8311;50.158;8.642;2024-02-23T03:10:33;2.72;;;1.33;;
16403;SDS011;8311;50.158;8.642;2024-02-23T03:13:26;4.85;;;1.50;;
16403;SDS011;8311;50.158;8.642;2024-02-23T03:16:20;3.30;;;1.60;;
16403;SDS011;8311;50.158;8.642;2024-02-23T03:19:15;3.17;;;1.05;;
16403;SDS011;8311;50.158;8.642;2024-02-23T03:22:08;4.45;;;0.95;;
16403;SDS011;8311;50.158;8.642;2024-02-23T03:25:03;9.77;;;1.38;;
16403;SDS011;8311;50.158;8.642;2024-02-23T03:27:59;6.15;;;1.45;;
16403;SDS011;8311;50.158;8.642;2024-02-23T03:30:52;3.30;;;1.10;;
16403;SDS011;8311;50.158;8.642;2024-02-23T03:33:45;3.00;;;1.30;;
16403;SDS011;8311;50.158;8.642;2024-02-23T03:36:39;4.88;;;1.17;;
16403;SDS011;8311;50.158;8.642;2024-02-23T03:39:33;3.63;;;1.30;;
16403;SDS011;8311;50.158;8.642;2024-02-23T03:42:30;9.15;;;1.50;;
16403;SDS011;8311;50.158;8.642;2024-02-23T03:45:23;4.80;;;1.45;;
16403;SDS011;8311;50.158;8.642;2024-02-23T03:48:16;4.80;;;1.33;;
16403;SDS011;8311;50.158;8.642;2024-02-23T03:51:09;5.60;;;1.38;;
16403;SDS011;8311;50.158;8.642;2024-02-23T03:54:02;3.25;;;1.30;;
16403;SDS011;8311;50.158;8.642;2024-02-23T03:56:55;2.80;;;1.27;;
16403;SDS011;8311;50.158;8.642;2024-02-23T03:59:53;5.13;;;1.35;;
16403;SDS011;8311;50.158;8.642;2024-02-23T04:02:46;4.68;;;1.30;;
16403;SDS011;8311;50.158;8.642;2024-02-23T04:05:39;6.78;;;1.50;;
16403;SDS011;8311;50.158;8.642;2024-02-23T04:08:32;2.10;;;0.90;;
16403;SDS011;8311;50.158;8.642;2024-02-23T04:11:27;3.90;;;1.42;;
16403;SDS011;8311;50.158;8.642;2024-02-23T04:14:20;4.85;;;1.50;;
16403;SDS011;8311;50.158;8.642;2024-02-23T04:17:14;3.03;;;1.20;;
16403;SDS011;8311;50.158;8.642;2024-02-23T04:20:08;3.17;;;1.25;;
16403;SDS011;8311;50.158;8.642;2024-02-23T04:23:03;6.28;;;1.40;;
16403;SDS011;8311;50.158;8.642;2024-02-23T04:25:56;1.25;;;0.40;;
16403;SDS011;8311;50.158;8.642;2024-02-23T04:28:50;2.05;;;1.00;;
16403;SDS011;8311;50.158;8.642;2024-02-23T04:31:43;1.60;;;0.70;;
16403;SDS011;8311;50.158;8.642;2024-02-23T04:34:38;2.33;;;0.70;;
16403;SDS011;8311;50.158;8.642;2024-02-23T04:37:31;1.58;;;0.57;;
16403;SDS011;8311;50.158;8.642;2024-02-23T04:40:27;3.92;;;0.95;;
16403;SDS011;8311;50.158;8.642;2024-02-23T04:43:20;10.35;;;1.60;;
16403;SDS011;8311;50.158;8.642;2024-02-23T04:46:14;7.10;;;1.75;;
16403;SDS011;8311;50.158;8.642;2024-02-23T04:49:08;8.88;;;2.00;;
16403;SDS011;8311;50.158;8.642;2024-02-23T04:52:07;8.00;;;1.88;;
16403;SDS011;8311;50.158;8.642;2024-02-23T04:55:00;11.32;;;1.80;;
16403;SDS011;8311;50.158;8.642;2024-02-23T04:57:55;12.85;;;2.15;;
16403;SDS011;8311;50.158;8.642;2024-02-23T05:00:48;7.70;;;1.65;;
16403;SDS011;8311;50.158;8.642;2024-02-23T05:03:41;3.38;;;0.98;;
16403;SDS011;8311;50.158;8.642;2024-02-23T05:06:34;2.53;;;0.98;;
16403;SDS011;8311;50.158;8.642;2024-02-23T05:09:29;2.47;;;0.82;;
16403;SDS011;8311;50.158;8.642;2024-02-23T05:12:23;5.50;;;1.40;;
16403;SDS011;8311;50.158;8.642;2024-02-23T05:15:16;2.08;;;0.90;;
16403;SDS011;8311;50.158;8.642;2024-02-23T05:18:09;3.28;;;1.33;;
16403;SDS011;8311;50.158;8.642;2024-02-23T05:21:06;6.75;;;1.23;;
16403;SDS011;8311;50.158;8.642;2024-02-23T05:23:59;2.75;;;0.90;;
16403;SDS011;8311;50.158;8.642;2024-02-23T05:26:54;3.00;;;1.30;;
16403;SDS011;8311;50.158;8.642;2024-02-23T05:29:49;3.83;;;0.90;;
16403;SDS011;8311;50.158;8.642;2024-02-23T05:32:42;3.20;;;1.10;;
16403;SDS011;8311;50.158;8.642;2024-02-23T05:35:35;4.47;;;1.23;;
16403;SDS011;8311;50.158;8.642;2024-02-23T05:38:28;3.13;;;1.20;;
16403;SDS011;8311;50.158;8.642;2024-02-23T05:41:21;2.75;;;0.93;;
16403;SDS011;8311;50.158;8.642;2024-02-23T05:44:17;4.25;;;1.10;;
16403;SDS011;8311;50.158;8.642;2024-02-23T05:47:11;4.22;;;1.20;;
16403;SDS011;8311;50.158;8.642;2024-02-23T05:50:08;5.40;;;1.20;;
16403;SDS011;8311;50.158;8.642;2024-02-23T05:53:01;4.22;;;0.90;;
16403;SDS011;8311;50.158;8.642;2024-02-23T05:55:55;4.13;;;0.98;;
16403;SDS011;8311;50.158;8.642;2024-02-23T05:58:49;3.25;;;0.85;;
16403;SDS011;8311;50.158;8.642;2024-02-23T06:01:45;2.90;;;1.17;;
16403;SDS011;8311;50.158;8.642;2024-02-23T06:04:39;4.22;;;1.05;;
16403;SDS011;8311;50.158;8.642;2024-02-23T06:07:33;4.13;;;1.00;;
16403;SDS011;8311;50.158;8.642;2024-02-23T06:10:28;3.97;;;1.25;;
16403;SDS011;8311;50.158;8.642;2024-02-23T06:13:21;2.83;;;1.17;;
16403;SDS011;8311;50.158;8.642;2024-02-23T06:16:14;2.72;;;0.90;;
16403;SDS011;8311;50.158;8.642;2024-02-23T06:19:09;4.45;;;1.20;;
16403;SDS011;8311;50.158;8.642;2024-02-23T06:22:02;3.55;;;1.00;;
16403;SDS011;8311;50.158;8.642;2024-02-23T06:24:58;3.30;;;1.30;;
16403;SDS011;8311;50.158;8.642;2024-02-23T06:27:51;4.47;;;1.50;;
16403;SDS011;8311;50.158;8.642;2024-02-23T06:30:45;2.53;;;1.15;;
16403;SDS011;8311;50.158;8.642;2024-02-23T06:33:38;3.15;;;1.10;;
16403;SDS011;8311;50.158;8.642;2024-02-23T06:36:34;3.95;;;1.20;;
16403;SDS011;8311;50.158;8.642;2024-02-23T06:39:27;4.10;;;1.40;;
16403;SDS011;8311;50.158;8.642;2024-02-23T06:42:21;2.95;;;0.93;;
16403;SDS011;8311;50.158;8.642;2024-02-23T06:45:15;4.75;;;1.48;;
16403;SDS011;8311;50.158;8.642;2024-02-23T06:48:09;3.00;;;1.17;;
16403;SDS011;8311;50.158;8.642;2024-02-23T06:51:02;3.83;;;1.20;;
16403;SDS011;8311;50.158;8.642;2024-02-23T06:53:58;4.45;;;1.15;;
16403;SDS011;8311;50.158;8.642;2024-02-23T06:56:51;3.33;;;1.20;;
16403;SDS011;8311;50.158;8.642;2024-02-23T06:59:44;4.38;;;1.20;;
16403;SDS011;8311;50.158;8.642;2024-02-23T07:02:38;4.25;;;1.30;;
16403;SDS011;8311;50.158;8.642;2024-02-23T07:05:34;4.03;;;1.38;;
16403;SDS011;8311;50.158;8.642;2024-02-23T07:08:27;2.17;;;1.10;;
16403;SDS011;8311;50.158;8.642;2024-02-23T07:11:23;3.45;;;1.15;;
16403;SDS011;8311;50.158;8.642;2024-02-23T07:14:16;2.92;;;1.30;;
16403;SDS011;8311;50.158;8.642;2024-02-23T07:17:11;6.28;;;1.48;;
16403;SDS011;8311;50.158;8.642;2024-02-23T07:20:06;3.85;;;1.30;;
16403;SDS011;8311;50.158;8.642;2024-02-23T07:23:00;3.72;;;1.23;;
16403;SDS011;8311;50.158;8.642;2024-02-23T07:25:53;4.47;;;1.50;;
16403;SDS011;8311;50.158;8.642;2024-02-23T07:28:49;3.38;;;1.20;;
16403;SDS011;8311;50.158;8.642;2024-02-23T07:31:42;6.43;;;1.55;;
16403;SDS011;8311;50.158;8.642;2024-02-23T07:34:35;4.70;;;1.40;;
16403;SDS011;8311;50.158;8.642;2024-02-23T07:37:28;5.13;;;1.50;;
16403;SDS011;8311;50.158;8.642;2024-02-23T07:40:23;4.05;;;1.63;;
16403;SDS011;8311;50.158;8.642;2024-02-23T07:43:17;4.13;;;1.13;;
16403;SDS011;8311;50.158;8.642;2024-02-23T07:46:11;3.55;;;1.27;;
16403;SDS011;8311;50.158;8.642;2024-02-23T07:49:04;2.55;;;0.85;;
16403;SDS011;8311;50.158;8.642;2024-02-23T07:52:00;5.57;;;1.48;;
16403;SDS011;8311;50.158;8.642;2024-02-23T07:54:54;4.63;;;1.25;;
16403;SDS011;8311;50.158;8.642;2024-02-23T07:57:46;5.35;;;1.30;;
16403;SDS011;8311;50.158;8.642;2024-02-23T08:00:40;2.67;;;1.10;;
16403;SDS011;8311;50.158;8.642;2024-02-23T08:03:34;5.43;;;1.30;;
16403;SDS011;8311;50.158;8.642;2024-02-23T08:06:27;3.30;;;1.08;;
16403;SDS011;8311;50.158;8.642;2024-02-23T08:09:22;5.35;;;1.30;;
16403;SDS011;8311;50.158;8.642;2024-02-23T08:12:15;3.42;;;1.20;;
16403;SDS011;8311;50.158;8.642;2024-02-23T08:15:09;4.25;;;1.33;;
16403;SDS011;8311;50.158;8.642;2024-02-23T08:18:02;6.70;;;1.35;;
16403;SDS011;8311;50.158;8.642;2024-02-23T08:20:57;6.00;;;1.30;;
16403;SDS011;8311;50.158;8.642;2024-02-23T08:23:51;3.38;;;1.20;;
16403;SDS011;8311;50.158;8.642;2024-02-23T08:26:44;5.82;;;1.42;;
16403;SDS011;8311;50.158;8.642;2024-02-23T08:29:38;3.22;;;1.30;;
16403;SDS011;8311;50.158;8.642;2024-02-23T08:32:31;4.00;;;1.20;;
16403;SDS011;8311;50.158;8.642;2024-02-23T08:35:25;5.32;;;1.30;;
16403;SDS011;8311;50.158;8.642;2024-02-23T08:38:22;5.97;;;1.52;;
16403;SDS011;8311;50.158;8.642;2024-02-23T08:41:15;4.70;;;1.70;;
16403;SDS011;8311;50.158;8.642;2024-02-23T08:44:08;4.35;;;0.98;;
16403;SDS011;8311;50.158;8.642;2024-02-23T08:47:02;2.65;;;1.00;;
16403;SDS011;8311;50.158;8.642;2024-02-23T08:49:55;4.13;;;1.30;;
16403;SDS011;8311;50.158;8.642;2024-02-23T08:52:48;4.90;;;1.05;;
16403;SDS011;8311;50.158;8.642;2024-02-23T08:55:45;6.82;;;1.50;;
16403;SDS011;8311;50.158;8.642;2024-02-23T08:58:39;6.60;;;1.70;;
16403;SDS011;8311;50.158;8.642;2024-02-23T09:01:34;6.00;;;1.65;;
16403;SDS011;8311;50.158;8.642;2024-02-23T09:04:26;7.65;;;1.63;;
16403;SDS011;8311;50.158;8.642;2024-02-23T09:07:20;5.80;;;1.50;;
16403;SDS011;8311;50.158;8.642;2024-02-23T09:10:14;6.10;;;1.27;;
16403;SDS011;8311;50.158;8.642;2024-02-23T09:13:08;4.00;;;1.40;;
16403;SDS011;8311;50.158;8.642;2024-02-23T09:16:02;7.40;;;1.73;;
16403;SDS011;8311;50.158;8.642;2024-02-23T09:18:56;6.88;;;1.73;;
16403;SDS011;8311;50.158;8.642;2024-02-23T09:21:50;5.93;;;1.30;;
16403;SDS011;8311;50.158;8.642;2024-02-23T09:24:43;3.53;;;1.20;;
16403;SDS011;8311;50.158;8.642;2024-02-23T09:27:36;6.47;;;1.67;;
16403;SDS011;8311;50.158;8.642;2024-02-23T09:30:37;4.85;;;1.50;;
16403;SDS011;8311;50.158;8.642;2024-02-23T09:33:30;5.45;;;1.65;;
16403;SDS011;8311;50.158;8.642;2024-02-23T09:36:24;5.00;;;1.17;;
16403;SDS011;8311;50.158;8.642;2024-02-23T09:39:17;3.63;;;1.42;;
16403;SDS011;8311;50.158;8.642;2024-02-23T09:42:12;3.38;;;1.27;;
16403;SDS011;8311;50.158;8.642;2024-02-23T09:45:06;3.42;;;1.38;;
16403;SDS011;8311;50.158;8.642;2024-02-23T09:48:02;6.20;;;1.63;;
16403;SDS011;8311;50.158;8.642;2024-02-23T09:50:57;5.60;;;1.45;;
16403;SDS011;8311;50.158;8.642;2024-02-23T09:53:52;4.00;;;1.67;;
16403;SDS011;8311;50.158;8.642;2024-02-23T09:56:46;7.18;;;1.75;;
16403;SDS011;8311;50.158;8.642;2024-02-23T09:59:39;5.05;;;1.50;;
16403;SDS011;8311;50.158;8.642;2024-02-23T10:02:34;5.85;;;1.58;;
16403;SDS011;8311;50.158;8.642;2024-02-23T10:05:30;5.72;;;1.40;;
16403;SDS011;8311;50.158;8.642;2024-02-23T10:08:29;5.55;;;1.33;;
16403;SDS011;8311;50.158;8.642;2024-02-23T10:11:23;3.60;;;1.38;;
16403;SDS011;8311;50.158;8.642;2024-02-23T10:14:18;5.85;;;1.70;;
16403;SDS011;8311;50.158;8.642;2024-02-23T10:17:11;5.63;;;1.35;;
16403;SDS011;8311;50.158;8.642;2024-02-23T10:20:04;5.70;;;1.30;;
16403;SDS011;8311;50.158;8.642;2024-02-23T10:23:00;4.22;;;1.60;;
16403;SDS011;8311;50.158;8.642;2024-02-23T10:25:54;6.72;;;1.77;;
16403;SDS011;8311;50.158;8.642;2024-02-23T10:28:48;6.03;;;1.60;;
16403;SDS011;8311;50.158;8.642;2024-02-23T10:31:43;3.53;;;1.13;;
16403;SDS011;8311;50.158;8.642;2024-02-23T10:34:41;4.78;;;1.67;;
16403;SDS011;8311;50.158;8.642;2024-02-23T10:37:36;6.50;;;2.08;;
16403;SDS011;8311;50.158;8.642;2024-02-23T10:40:32;4.57;;;1.70;;
16403;SDS011;8311;50.158;8.642;2024-02-23T10:43:30;3.88;;;1.30;;
16403;SDS011;8311;50.158;8.642;2024-02-23T10:46:31;7.68;;;1.60;;
16403;SDS011;8311;50.158;8.642;2024-02-23T10:49:24;4.13;;;1.45;;
16403;SDS011;8311;50.158;8.642;2024-02-23T10:52:19;5.32;;;1.55;;
16403;SDS011;8311;50.158;8.642;2024-02-23T10:55:15;9.80;;;1.73;;
16403;SDS011;8311;50.158;8.642;2024-02-23T10:58:11;5.38;;;1.60;;
16403;SDS011;8311;50.158;8.642;2024-02-23T11:01:05;4.28;;;1.60;;
16403;SDS011;8311;50.158;8.642;2024-02-23T11:04:01;4.57;;;1.50;;
16403;SDS011;8311;50.158;8.642;2024-02-23T11:06:55;8.85;;;1.58;;
16403;SDS011;8311;50.158;8.642;2024-02-23T11:09:51;5.45;;;1.70;;
16403;SDS011;8311;50.158;8.642;2024-02-23T11:12:44;5.63;;;1.33;;
16403;SDS011;8311;50.158;8.642;2024-02-23T11:15:41;5.82;;;1.83;;
16403;SDS011;8311;50.158;8.642;2024-02-23T11:18:35;4.80;;;1.42;;
16403;SDS011;8311;50.158;8.642;2024-02-23T11:21:33;7.05;;;2.03;;
16403;SDS011;8311;50.158;8.642;2024-02-23T11:24:28;6.15;;;1.67;;
16403;SDS011;8311;50.158;8.642;2024-02-23T11:27:21;3.63;;;1.23;;
16403;SDS011;8311;50.158;8.642;2024-02-23T11:30:17;3.75;;;1.52;;
16403;SDS011;8311;50.158;8.642;2024-02-23T11:33:13;6.35;;;1.38;;
16403;SDS011;8311;50.158;8.642;2024-02-23T11:36:07;5.03;;;1.65;;
16403;SDS011;8311;50.158;8.642;2024-02-23T11:39:04;5.75;;;1.65;;
16403;SDS011;8311;50.158;8.642;2024-02-23T11:41:58;8.27;;;1.52;;
16403;SDS011;8311;50.158;8.642;2024-02-23T11:44:51;4.25;;;1.30;;
16403;SDS011;8311;50.158;8.642;2024-02-23T11:47:46;4.40;;;1.13;;
16403;SDS011;8311;50.158;8.642;2024-02-23T11:50:40;3.70;;;1.10;;
16403;SDS011;8311;50.158;8.642;2024-02-23T11:53:34;5.22;;;1.38;;
16403;SDS011;8311;50.158;8.642;2024-02-23T11:56:30;4.57;;;1.23;;
16403;SDS011;8311;50.158;8.642;2024-02-23T11:59:24;5.85;;;1.15;;
16403;SDS011;8311;50.158;8.642;2024-02-23T12:02:18;6.70;;;1.25;;
16403;SDS011;8311;50.158;8.642;2024-02-23T12:05:10;3.35;;;1.15;;
16403;SDS011;8311;50.158;8.642;2024-02-23T12:08:05;4.38;;;1.40;;
16403;SDS011;8311;50.158;8.642;2024-02-23T12:10:59;4.28;;;1.27;;
16403;SDS011;8311;50.158;8.642;2024-02-23T12:13:53;4.50;;;1.10;;
16403;SDS011;8311;50.158;8.642;2024-02-23T12:16:49;3.40;;;1.20;;
16403;SDS011;8311;50.158;8.642;2024-02-23T12:19:45;3.67;;;1.30;;
16403;SDS011;8311;50.158;8.642;2024-02-23T12:22:38;3.03;;;1.15;;
16403;SDS011;8311;50.158;8.642;2024-02-23T12:25:34;4.38;;;1.17;;
16403;SDS011;8311;50.158;8.642;2024-02-23T12:28:30;3.80;;;1.15;;
16403;SDS011;8311;50.158;8.642;2024-02-23T12:31:24;7.03;;;1.52;;
16403;SDS011;8311;50.158;8.642;2024-02-23T12:34:18;4.47;;;1.35;;
16403;SDS011;8311;50.158;8.642;2024-02-23T12:37:14;5.93;;;1.52;;
16403;SDS011;8311;50.158;8.642;2024-02-23T12:40:07;6.85;;;1.83;;
16403;SDS011;8311;50.158;8.642;2024-02-23T12:43:03;4.25;;;1.20;;
16403;SDS011;8311;50.158;8.642;2024-02-23T12:45:57;3.88;;;1.20;;
16403;SDS011;8311;50.158;8.642;2024-02-23T12:48:50;4.60;;;1.30;;
16403;SDS011;8311;50.158;8.642;2024-02-23T12:51:43;4.13;;;1.38;;
16403;SDS011;8311;50.158;8.642;2024-02-23T12:54:37;3.25;;;1.42;;
16403;SDS011;8311;50.158;8.642;2024-02-23T12:57:30;5.00;;;1.50;;
16403;SDS011;8311;50.158;8.642;2024-02-23T13:00:24;6.28;;;1.40;;
16403;SDS011;8311;50.158;8.642;2024-02-23T13:03:18;5.43;;;1.15;;
16403;SDS011;8311;50.158;8.642;2024-02-23T13:06:11;4.80;;;1.27;;
16403;SDS011;8311;50.158;8.642;2024-02-23T13:09:04;3.83;;;1.13;;
16403;SDS011;8311;50.158;8.642;2024-02-23T13:12:00;6.00;;;1.40;;
16403;SDS011;8311;50.158;8.642;2024-02-23T13:14:53;4.22;;;1.13;;
16403;SDS011;8311;50.158;8.642;2024-02-23T13:17:47;6.22;;;1.23;;
16403;SDS011;8311;50.158;8.642;2024-02-23T13:20:41;4.35;;;1.40;;
16403;SDS011;8311;50.158;8.642;2024-02-23T13:23:35;3.20;;;1.27;;
16403;SDS011;8311;50.158;8.642;2024-02-23T13:26:29;4.63;;;1.33;;
16403;SDS011;8311;50.158;8.642;2024-02-23T13:29:22;5.30;;;1.58;;
16403;SDS011;8311;50.158;8.642;2024-02-23T13:32:16;5.00;;;1.23;;
16403;SDS011;8311;50.158;8.642;2024-02-23T13:35:10;6.63;;;1.80;;
16403;SDS011;8311;50.158;8.642;2024-02-23T13:38:05;2.90;;;1.25;;
16403;SDS011;8311;50.158;8.642;2024-02-23T13:40:59;2.42;;;1.02;;
16403;SDS011;8311;50.158;8.642;2024-02-23T13:43:52;2.33;;;1.05;;
16403;SDS011;8311;50.158;8.642;2024-02-23T13:46:45;3.03;;;1.02;;
16403;SDS011;8311;50.158;8.642;2024-02-23T13:49:38;3.38;;;1.30;;
16403;SDS011;8311;50.158;8.642;2024-02-23T13:52:32;4.82;;;1.40;;
16403;SDS011;8311;50.158;8.642;2024-02-23T13:55:26;3.38;;;0.93;;
16403;SDS011;8311;50.158;8.642;2024-02-23T13:58:19;4.40;;;1.40;;
16403;SDS011;8311;50.158;8.642;2024-02-23T14:01:13;6.38;;;1.50;;
16403;SDS011;8311;50.158;8.642;2024-02-23T14:04:07;5.18;;;1.08;;
16403;SDS011;8311;50.158;8.642;2024-02-23T14:07:00;5.22;;;1.20;;
16403;SDS011;8311;50.158;8.642;2024-02-23T14:09:57;4.85;;;1.45;;
16403;SDS011;8311;50.158;8.642;2024-02-23T14:12:51;3.08;;;1.23;;
16403;SDS011;8311;50.158;8.642;2024-02-23T14:15:45;3.03;;;1.10;;
16403;SDS011;8311;50.158;8.642;2024-02-23T14:18:39;3.75;;;1.10;;
16403;SDS011;8311;50.158;8.642;2024-02-23T14:21:35;4.53;;;1.35;;
16403;SDS011;8311;50.158;8.642;2024-02-23T14:24:29;3.47;;;1.00;;
16403;SDS011;8311;50.158;8.642;2024-02-23T14:27:23;5.00;;;1.67;;
16403;SDS011;8311;50.158;8.642;2024-02-23T14:30:21;4.13;;;1.00;;
16403;SDS011;8311;50.158;8.642;2024-02-23T14:33:14;2.85;;;0.80;;
16403;SDS011;8311;50.158;8.642;2024-02-23T14:36:08;2.33;;;1.27;;
16403;SDS011;8311;50.158;8.642;2024-02-23T14:39:02;4.18;;;1.40;;
16403;SDS011;8311;50.158;8.642;2024-02-23T14:41:56;5.57;;;1.23;;
16403;SDS011;8311;50.158;8.642;2024-02-23T14:44:52;4.32;;;1.52;;
16403;SDS011;8311;50.158;8.642;2024-02-23T14:47:45;3.50;;;1.17;;
16403;SDS011;8311;50.158;8.642;2024-02-23T14:50:38;2.92;;;1.20;;
16403;SDS011;8311;50.158;8.642;2024-02-23T14:53:32;3.15;;;1.20;;
16403;SDS011;8311;50.158;8.642;2024-02-23T14:56:26;4.00;;;1.30;;
16403;SDS011;8311;50.158;8.642;2024-02-23T14:59:19;6.32;;;1.52;;
16403;SDS011;8311;50.158;8.642;2024-02-23T15:02:18;7.85;;;1.10;;
16403;SDS011;8311;50.158;8.642;2024-02-23T15:05:13;2.15;;;1.15;;
16403;SDS011;8311;50.158;8.642;2024-02-23T15:08:07;3.08;;;1.10;;
16403;SDS011;8311;50.158;8.642;2024-02-23T15:11:00;4.93;;;1.08;;
16403;SDS011;8311;50.158;8.642;2024-02-23T15:13:53;6.80;;;1.35;;
16403;SDS011;8311;50.158;8.642;2024-02-23T15:16:49;3.50;;;1.20;;
16403;SDS011;8311;50.158;8.642;2024-02-23T15:19:43;5.55;;;1.45;;
16403;SDS011;8311;50.158;8.642;2024-02-23T15:22:37;5.65;;;1.65;;
16403;SDS011;8311;50.158;8.642;2024-02-23T15:25:34;2.83;;;1.08;;
16403;SDS011;8311;50.158;8.642;2024-02-23T15:28:34;4.13;;;1.10;;
16403;SDS011;8311;50.158;8.642;2024-02-23T15:31:28;7.88;;;1.50;;
16403;SDS011;8311;50.158;8.642;2024-02-23T15:34:21;3.05;;;1.23;;
16403;SDS011;8311;50.158;8.642;2024-02-23T15:37:15;4.65;;;1.25;;
16403;SDS011;8311;50.158;8.642;2024-02-23T15:40:09;6.93;;;1.38;;
16403;SDS011;8311;50.158;8.642;2024-02-23T15:43:04;4.75;;;1.52;;
16403;SDS011;8311;50.158;8.642;2024-02-23T15:45:57;4.50;;;1.30;;
16403;SDS011;8311;50.158;8.642;2024-02-23T15:48:51;10.15;;;1.38;;
16403;SDS011;8311;50.158;8.642;2024-02-23T15:51:44;4.82;;;1.38;;
16403;SDS011;8311;50.158;8.642;2024-02-23T15:54:48;4.85;;;1.15;;
16403;SDS011;8311;50.158;8.642;2024-02-23T15:57:42;7.20;;;1.50;;
16403;SDS011;8311;50.158;8.642;2024-02-23T16:00:35;4.78;;;1.40;;
16403;SDS011;8311;50.158;8.642;2024-02-23T16:03:28;8.18;;;1.88;;
16403;SDS011;8311;50.158;8.642;2024-02-23T16:06:21;7.05;;;1.80;;
16403;SDS011;8311;50.158;8.642;2024-02-23T16:09:16;6.38;;;1.65;;
16403;SDS011;8311;50.158;8.642;2024-02-23T16:12:11;6.13;;;1.55;;
16403;SDS011;8311;50.158;8.642;2024-02-23T16:15:06;5.97;;;1.70;;
16403;SDS011;8311;50.158;8.642;2024-02-23T16:18:01;7.55;;;1.73;;
16403;SDS011;8311;50.158;8.642;2024-02-23T16:20:55;3.95;;;1.77;;
16403;SDS011;8311;50.158;8.642;2024-02-23T16:23:48;10.93;;;1.55;;
16403;SDS011;8311;50.158;8.642;2024-02-23T16:26:41;5.75;;;1.58;;
16403;SDS011;8311;50.158;8.642;2024-02-23T16:29:38;5.03;;;1.67;;
16403;SDS011;8311;50.158;8.642;2024-02-23T16:32:32;10.00;;;2.35;;
16403;SDS011;8311;50.158;8.642;2024-02-23T16:35:25;11.05;;;2.38;;
16403;SDS011;8311;50.158;8.642;2024-02-23T16:38:19;8.95;;;2.33;;
16403;SDS011;8311;50.158;8.642;2024-02-23T16:41:14;11.32;;;2.45;;
16403;SDS011;8311;50.158;8.642;2024-02-23T16:44:08;10.20;;;2.38;;
16403;SDS011;8311;50.158;8.642;2024-02-23T16:47:04;5.57;;;2.20;;
16403;SDS011;8311;50.158;8.642;2024-02-23T16:49:58;8.75;;;2.58;;
16403;SDS011;8311;50.158;8.642;2024-02-23T16:52:51;8.25;;;2.47;;
16403;SDS011;8311;50.158;8.642;2024-02-23T16:55:45;12.02;;;3.08;;
16403;SDS011;8311;50.158;8.642;2024-02-23T16:58:40;9.63;;;3.17;;
16403;SDS011;8311;50.158;8.642;2024-02-23T17:01:34;8.85;;;2.70;;
16403;SDS011;8311;50.158;8.642;2024-02-23T17:04:29;8.52;;;2.97;;
16403;SDS011;8311;50.158;8.642;2024-02-23T17:07:23;7.18;;;2.50;;
16403;SDS011;8311;50.158;8.642;2024-02-23T17:10:16;6.93;;;2.60;;
16403;SDS011;8311;50.158;8.642;2024-02-23T17:13:09;11.77;;;2.92;;
16403;SDS011;8311;50.158;8.642;2024-02-23T17:16:02;8.75;;;2.80;;
16403;SDS011;8311;50.158;8.642;2024-02-23T17:18:55;11.82;;;2.95;;
16403;SDS011;8311;50.158;8.642;2024-02-23T17:21:50;6.38;;;2.08;;
16403;SDS011;8311;50.158;8.642;2024-02-23T17:24:44;6.60;;;2.63;;
16403;SDS011;8311;50.158;8.642;2024-02-23T17:27:38;10.07;;;2.97;;
16403;SDS011;8311;50.158;8.642;2024-02-23T17:30:31;7.00;;;2.95;;
16403;SDS011;8311;50.158;8.642;2024-02-23T17:33:25;13.43;;;3.05;;
16403;SDS011;8311;50.158;8.642;2024-02-23T17:36:18;8.82;;;2.38;;
16403;SDS011;8311;50.158;8.642;2024-02-23T17:39:12;9.90;;;3.17;;
16403;SDS011;8311;50.158;8.642;2024-02-23T17:42:07;9.32;;;2.95;;
16403;SDS011;8311;50.158;8.642;2024-02-23T17:45:00;8.07;;;2.42;;